createdAt,value
2022-11-15T00:00:00.476Z,16.77
2022-11-15T00:02:48.647Z,16.75
2022-11-15T00:05:37.160Z,14.98
2022-11-15T00:08:24.564Z,15.13
2022-11-15T00:11:13.637Z,17.15
2022-11-15T00:14:03.424Z,17.35
2022-11-15T00:16:50.642Z,17.35
2022-11-15T00:19:38.209Z,20.27
2022-11-15T00:22:25.643Z,22.60
2022-11-15T00:25:12.904Z,26.58
2022-11-15T00:28:01.007Z,23.73
2022-11-15T00:30:49.999Z,22.75
2022-11-15T00:33:37.332Z,21.88
2022-11-15T00:36:24.752Z,25.40
2022-11-15T00:39:12.059Z,23.90
2022-11-15T00:41:59.675Z,23.88
2022-11-15T00:44:47.101Z,23.13
2022-11-15T00:47:36.130Z,19.35
2022-11-15T00:50:23.304Z,20.85
2022-11-15T00:53:10.476Z,18.02
2022-11-15T00:55:57.719Z,17.38
2022-11-15T00:58:45.038Z,15.10
2022-11-15T01:01:32.218Z,17.10
2022-11-15T01:04:20.739Z,13.32
2022-11-15T01:07:08.521Z,14.00
2022-11-15T01:09:55.980Z,13.82
2022-11-15T01:12:43.394Z,10.30
2022-11-15T01:15:30.840Z,9.75
2022-11-15T01:18:18.101Z,11.32
2022-11-15T01:21:10.916Z,10.57
2022-11-15T01:23:59.397Z,9.98
2022-11-15T01:26:46.782Z,12.77
2022-11-15T01:29:34.552Z,10.90
2022-11-15T01:32:21.766Z,12.65
2022-11-15T01:35:09.659Z,12.15
2022-11-15T01:37:58.486Z,14.65
2022-11-15T01:40:46.047Z,12.85
2022-11-15T01:43:35.262Z,10.48
2022-11-15T01:46:33.935Z,11.68
2022-11-15T01:49:24.702Z,10.98
2022-11-15T01:52:17.321Z,12.70
2022-11-15T01:55:10.080Z,11.13
2022-11-15T01:58:02.291Z,10.52
2022-11-15T02:00:51.211Z,11.60
2022-11-15T02:03:46.715Z,12.18
2022-11-15T02:06:34.892Z,13.45
2022-11-15T02:09:22.117Z,13.30
2022-11-15T02:12:13.499Z,13.55
2022-11-15T02:15:01.365Z,14.23
2022-11-15T02:18:00.374Z,13.35
2022-11-15T02:21:00.664Z,13.38
2022-11-15T02:24:16.094Z,14.75
2022-11-15T02:27:44.298Z,16.58
2022-11-15T02:30:43.302Z,17.98
2022-11-15T02:33:37.679Z,19.25
2022-11-15T02:36:37.184Z,16.35
2022-11-15T02:39:35.091Z,15.88
2022-11-15T02:42:44.975Z,15.90
2022-11-15T02:45:39.299Z,17.05
2022-11-15T02:48:28.361Z,17.23
2022-11-15T02:51:16.893Z,17.70
2022-11-15T02:54:04.505Z,16.85
2022-11-15T02:56:55.177Z,16.13
2022-11-15T03:00:06.779Z,15.20
2022-11-15T03:03:08.342Z,16.65
2022-11-15T03:06:03.872Z,17.02
2022-11-15T03:09:04.170Z,12.55
2022-11-15T03:11:58.636Z,13.40
2022-11-15T03:14:55.150Z,13.35
2022-11-15T03:17:50.124Z,12.45
2022-11-15T03:20:39.471Z,11.10
2022-11-15T03:23:28.123Z,11.35
2022-11-15T03:26:18.482Z,13.63
2022-11-15T03:29:10.607Z,14.65
2022-11-15T03:32:02.504Z,17.00
2022-11-15T03:34:54.167Z,20.17
2022-11-15T03:37:48.014Z,16.67
2022-11-15T03:40:39.809Z,17.35
2022-11-15T03:43:36.438Z,15.18
2022-11-15T03:46:30.001Z,12.52
2022-11-15T03:49:22.211Z,13.18
2022-11-15T03:52:10.049Z,14.40
2022-11-15T03:54:59.142Z,14.18
2022-11-15T03:57:47.204Z,12.00
2022-11-15T04:00:34.565Z,11.63
2022-11-15T04:03:22.015Z,14.60
2022-11-15T04:06:09.600Z,12.68
2022-11-15T04:08:56.811Z,16.10
2022-11-15T04:11:45.457Z,17.27
2022-11-15T04:14:33.029Z,14.80
2022-11-15T04:17:20.323Z,17.17
2022-11-15T04:20:28.008Z,14.70
2022-11-15T04:23:35.848Z,15.60
2022-11-15T04:26:25.302Z,14.43
2022-11-15T04:29:32.135Z,14.68
2022-11-15T04:32:19.447Z,15.73
2022-11-15T04:35:07.807Z,11.07
2022-11-15T04:37:55.816Z,10.48
2022-11-15T04:40:43.236Z,15.27
2022-11-15T04:43:31.365Z,14.73
2022-11-15T04:46:20.826Z,15.82
2022-11-15T04:49:08.265Z,17.80
2022-11-15T04:51:55.832Z,14.88
2022-11-15T04:54:44.002Z,12.00
2022-11-15T04:57:31.701Z,11.65
2022-11-15T05:00:19.814Z,13.02
2022-11-15T05:03:26.409Z,14.38
2022-11-15T05:06:14.088Z,13.60
2022-11-15T05:09:01.985Z,13.82
2022-11-15T05:11:49.921Z,16.25
2022-11-15T05:14:37.102Z,17.50
2022-11-15T05:17:24.661Z,20.23
2022-11-15T05:20:14.209Z,19.83
2022-11-15T05:23:02.045Z,20.15
2022-11-15T05:25:49.299Z,19.45
2022-11-15T05:28:38.170Z,20.02
2022-11-15T05:31:26.320Z,16.88
2022-11-15T05:34:14.033Z,19.70
2022-11-15T05:37:03.303Z,19.73
2022-11-15T05:39:50.328Z,15.35
2022-11-15T05:42:37.784Z,13.65
2022-11-15T05:45:27.161Z,14.52
2022-11-15T05:48:15.933Z,18.13
2022-11-15T05:51:04.619Z,19.63
2022-11-15T05:53:55.032Z,19.45
2022-11-15T05:56:42.574Z,17.52
2022-11-15T05:59:31.883Z,18.65
2022-11-15T06:02:19.283Z,18.95
2022-11-15T06:05:07.289Z,18.65
2022-11-15T06:07:54.922Z,15.38
2022-11-15T06:10:43.782Z,13.60
2022-11-15T06:13:31.564Z,17.63
2022-11-15T06:16:18.825Z,17.77
2022-11-15T06:19:08.080Z,17.08
2022-11-15T06:21:55.233Z,17.75
2022-11-15T06:24:44.928Z,13.48
2022-11-15T06:27:34.193Z,11.73
2022-11-15T06:30:21.753Z,12.13
2022-11-15T06:33:09.861Z,11.80
2022-11-15T06:35:57.411Z,13.43
2022-11-15T06:38:45.087Z,15.82
2022-11-15T06:41:32.509Z,18.27
2022-11-15T06:44:21.240Z,18.55
2022-11-15T06:47:08.668Z,14.50
2022-11-15T06:49:56.160Z,16.00
2022-11-15T06:52:43.424Z,15.82
2022-11-15T06:55:30.633Z,11.75
2022-11-15T06:58:24.420Z,13.85
2022-11-15T07:01:14.376Z,12.73
2022-11-15T07:04:02.083Z,12.50
2022-11-15T07:06:52.131Z,9.77
2022-11-15T07:09:39.489Z,8.73
2022-11-15T07:12:27.272Z,8.95
2022-11-15T07:15:14.888Z,8.43
2022-11-15T07:18:05.049Z,11.02
2022-11-15T07:20:52.335Z,11.98
2022-11-15T07:23:40.376Z,9.43
2022-11-15T07:26:27.856Z,8.60
2022-11-15T07:29:15.288Z,9.68
2022-11-15T07:32:03.312Z,10.65
2022-11-15T07:34:51.960Z,8.13
2022-11-15T07:37:39.224Z,8.68
2022-11-15T07:40:27.170Z,11.02
2022-11-15T07:43:14.990Z,8.45
2022-11-15T07:46:08.597Z,9.95
2022-11-15T07:48:55.912Z,8.68
2022-11-15T07:51:44.675Z,9.15
2022-11-15T07:54:31.884Z,9.30
2022-11-15T07:57:19.498Z,9.88
2022-11-15T08:00:08.275Z,9.60
2022-11-15T08:03:03.359Z,10.35
2022-11-15T08:05:53.579Z,6.30
2022-11-15T08:08:42.222Z,9.38
2022-11-15T08:11:29.652Z,10.68
2022-11-15T08:14:17.165Z,10.60
2022-11-15T08:17:04.892Z,9.45
2022-11-15T08:19:52.223Z,9.07
2022-11-15T08:22:39.753Z,8.65
2022-11-15T08:25:29.998Z,9.60
2022-11-15T08:28:19.382Z,10.25
2022-11-15T08:31:07.269Z,9.32
2022-11-15T08:33:54.980Z,9.82
2022-11-15T08:36:45.880Z,9.32
2022-11-15T08:39:33.512Z,11.32
2022-11-15T08:42:22.361Z,10.65
2022-11-15T08:45:10.888Z,10.48
2022-11-15T08:47:58.367Z,10.88
2022-11-15T08:50:45.619Z,10.70
2022-11-15T08:53:33.573Z,10.95
2022-11-15T08:56:21.053Z,9.93
2022-11-15T08:59:09.730Z,9.73
2022-11-15T09:01:56.973Z,10.82
2022-11-15T09:04:45.344Z,12.45
2022-11-15T09:07:32.934Z,12.10
2022-11-15T09:10:20.606Z,11.73
2022-11-15T09:13:07.826Z,17.35
2022-11-15T09:15:59.737Z,13.45
2022-11-15T09:18:46.885Z,12.65
2022-11-15T09:21:34.643Z,14.40
2022-11-15T09:24:22.001Z,12.43
2022-11-15T09:27:09.225Z,14.73
2022-11-15T09:29:56.658Z,12.85
2022-11-15T09:32:45.349Z,14.52
2022-11-15T09:35:33.777Z,11.52
2022-11-15T09:38:21.643Z,12.18
2022-11-15T09:41:31.775Z,12.18
2022-11-15T09:44:48.512Z,12.35
2022-11-15T09:50:50.178Z,13.98
2022-11-15T09:56:18.962Z,11.80
2022-11-15T09:58:57.532Z,10.60
2022-11-15T10:01:38.440Z,13.82
2022-11-15T10:04:10.756Z,10.70
2022-11-15T10:06:50.072Z,9.63
2022-11-15T10:09:26.242Z,8.65
2022-11-15T10:11:55.315Z,8.98
2022-11-15T10:14:27.473Z,8.68
2022-11-15T10:17:32.268Z,10.00
2022-11-15T10:20:11.659Z,8.88
2022-11-15T10:22:47.990Z,9.77
2022-11-15T10:25:24.985Z,9.00
2022-11-15T10:28:00.216Z,7.93
2022-11-15T10:30:35.610Z,9.05
2022-11-15T10:33:21.955Z,8.75
2022-11-15T10:35:50.812Z,7.68
2022-11-15T10:38:20.990Z,7.60
2022-11-15T10:40:49.760Z,10.80
2022-11-15T10:43:21.078Z,9.77
2022-11-15T10:45:51.799Z,9.10
2022-11-15T10:48:27.386Z,7.65
2022-11-15T10:50:57.894Z,9.95
2022-11-15T10:53:33.846Z,10.30
2022-11-15T10:56:07.517Z,14.02
2022-11-15T10:58:40.156Z,11.90
2022-11-15T11:01:14.199Z,14.48
2022-11-15T11:03:44.631Z,11.27
2022-11-15T11:06:16.177Z,9.15
2022-11-15T11:08:59.669Z,12.18
2022-11-15T11:11:47.065Z,10.43
2022-11-15T11:14:24.033Z,10.52
2022-11-15T11:16:56.727Z,9.38
2022-11-15T11:19:45.723Z,12.35
2022-11-15T11:22:32.915Z,10.52
2022-11-15T11:25:18.652Z,11.98
2022-11-15T11:28:01.214Z,11.88
2022-11-15T11:30:43.089Z,12.85
2022-11-15T11:33:18.536Z,15.07
2022-11-15T11:35:56.475Z,18.45
2022-11-15T11:38:40.462Z,13.13
2022-11-15T11:41:21.058Z,14.57
2022-11-15T11:44:02.164Z,13.63
2022-11-15T11:46:55.915Z,14.93
2022-11-15T11:49:32.396Z,15.60
2022-11-15T11:52:07.357Z,15.05
2022-11-15T11:54:49.265Z,16.52
2022-11-15T11:57:30.536Z,16.88
2022-11-15T12:00:04.768Z,14.65
2022-11-15T12:02:45.617Z,18.83
2022-11-15T12:05:20.378Z,15.95
2022-11-15T12:07:51.884Z,15.18
2022-11-15T12:10:26.342Z,17.95
2022-11-15T12:13:06.487Z,17.20
2022-11-15T12:15:41.837Z,16.25
2022-11-15T12:18:14.911Z,19.45
2022-11-15T12:20:53.408Z,16.88
2022-11-15T12:23:27.658Z,19.42
2022-11-15T12:26:03.347Z,15.73
2022-11-15T12:28:52.880Z,13.18
2022-11-15T12:31:42.380Z,12.40
2022-11-15T12:34:47.256Z,15.95
2022-11-15T12:37:58.218Z,13.63
2022-11-15T12:40:33.019Z,13.55
2022-11-15T12:43:31.569Z,14.02
2022-11-15T12:46:07.776Z,12.95
2022-11-15T12:49:02.079Z,8.90
2022-11-15T12:52:08.056Z,10.93
2022-11-15T12:54:59.901Z,12.85
2022-11-15T12:57:34.731Z,10.20
2022-11-15T13:00:25.583Z,13.68
2022-11-15T13:03:19.398Z,14.05
2022-11-15T13:06:02.139Z,13.85
2022-11-15T13:08:49.410Z,11.88
2022-11-15T13:11:47.862Z,12.38
2022-11-15T13:14:46.099Z,12.02
2022-11-15T13:17:37.332Z,10.80
2022-11-15T13:20:31.570Z,13.60
2022-11-15T13:23:11.709Z,13.35
2022-11-15T13:26:17.514Z,12.23
2022-11-15T13:28:50.468Z,15.52
2022-11-15T13:31:29.950Z,17.55
2022-11-15T13:34:02.407Z,14.15
2022-11-15T13:36:35.500Z,14.68
2022-11-15T13:39:06.801Z,14.32
2022-11-15T13:41:37.025Z,16.48
2022-11-15T13:44:20.725Z,13.43
2022-11-15T13:46:49.628Z,17.63
2022-11-15T13:49:18.631Z,12.60
2022-11-15T13:51:52.542Z,11.07
2022-11-15T13:54:26.395Z,12.63
2022-11-15T13:56:59.374Z,12.80
2022-11-15T13:59:30.610Z,12.57
2022-11-15T14:02:03.435Z,12.32
2022-11-15T14:04:35.267Z,10.90
2022-11-15T14:07:05.604Z,12.32
2022-11-15T14:09:38.402Z,13.25
2022-11-15T14:12:30.258Z,11.27
2022-11-15T14:14:59.894Z,20.15
2022-11-15T14:17:40.186Z,22.20
2022-11-15T14:20:31.922Z,15.52
2022-11-15T14:23:03.534Z,14.13
2022-11-15T14:25:33.423Z,13.80
2022-11-15T14:28:16.323Z,24.85
2022-11-15T14:30:51.116Z,20.50
2022-11-15T14:33:23.467Z,24.23
2022-11-15T14:35:53.243Z,21.25
2022-11-15T14:38:23.630Z,23.98
2022-11-15T14:40:52.716Z,24.33
2022-11-15T14:43:21.545Z,24.17
2022-11-15T14:45:50.570Z,22.98
2022-11-15T14:48:19.417Z,18.60
2022-11-15T14:50:48.366Z,19.20
2022-11-15T14:53:18.816Z,19.52
2022-11-15T14:55:49.227Z,18.17
2022-11-15T14:58:18.084Z,18.95
2022-11-15T15:00:47.062Z,20.35
2022-11-15T15:03:15.934Z,21.13
2022-11-15T15:05:46.060Z,19.05
2022-11-15T15:08:15.109Z,24.50
2022-11-15T15:10:46.177Z,23.13
2022-11-15T15:13:20.509Z,28.90
2022-11-15T15:15:50.569Z,26.48
2022-11-15T15:18:20.808Z,29.05
2022-11-15T15:21:02.145Z,29.40
2022-11-15T15:23:32.111Z,23.38
2022-11-15T15:26:01.061Z,24.80
2022-11-15T15:28:34.809Z,27.88
2022-11-15T15:31:04.715Z,19.92
2022-11-15T15:33:33.605Z,19.45
2022-11-15T15:36:02.416Z,21.83
2022-11-15T15:38:31.986Z,25.63
2022-11-15T15:41:03.923Z,23.20
2022-11-15T15:43:34.304Z,22.80
2022-11-15T15:46:03.722Z,20.77
2022-11-15T15:48:34.977Z,20.13
2022-11-15T15:51:11.170Z,23.17
2022-11-15T15:53:43.137Z,22.35
2022-11-15T15:56:12.126Z,22.77
2022-11-15T15:58:42.394Z,25.15
2022-11-15T16:01:11.401Z,22.33
2022-11-15T16:03:40.377Z,31.05
2022-11-15T16:06:37.529Z,27.90
2022-11-15T16:09:16.239Z,27.52
2022-11-15T16:11:47.716Z,24.17
2022-11-15T16:14:18.026Z,27.25
2022-11-15T16:16:47.135Z,31.15
2022-11-15T16:19:16.069Z,30.58
2022-11-15T16:21:44.953Z,25.85
2022-11-15T16:24:13.851Z,25.33
2022-11-15T16:26:42.811Z,22.65
2022-11-15T16:29:12.566Z,23.55
2022-11-15T16:31:42.939Z,22.10
2022-11-15T16:34:11.802Z,26.42
2022-11-15T16:36:41.045Z,27.48
2022-11-15T16:39:14.460Z,24.50
2022-11-15T16:41:47.676Z,24.17
2022-11-15T16:44:16.830Z,26.85
2022-11-15T16:46:51.870Z,26.95
2022-11-15T16:49:21.886Z,31.70
2022-11-15T16:51:51.702Z,25.40
2022-11-15T16:54:20.713Z,21.77
2022-11-15T16:56:49.605Z,20.90
2022-11-15T16:59:20.133Z,19.20
2022-11-15T17:01:53.168Z,17.33
2022-11-15T17:04:22.762Z,17.88
2022-11-15T17:06:51.673Z,17.45
2022-11-15T17:09:24.530Z,21.85
2022-11-15T17:11:53.841Z,34.42
2022-11-15T17:14:23.263Z,26.33
2022-11-15T17:16:56.146Z,20.00
2022-11-15T17:19:25.069Z,18.92
2022-11-15T17:21:54.279Z,20.38
2022-11-15T17:24:23.290Z,21.73
2022-11-15T17:26:52.166Z,17.00
2022-11-15T17:29:21.037Z,17.88
2022-11-15T17:31:50.044Z,15.10
2022-11-15T17:34:20.385Z,17.25
2022-11-15T17:36:50.389Z,17.58
2022-11-15T17:39:20.807Z,19.08
2022-11-15T17:41:50.260Z,18.80
2022-11-15T17:44:19.207Z,16.10
2022-11-15T17:46:48.041Z,16.75
2022-11-15T17:49:16.877Z,17.00
2022-11-15T17:51:49.948Z,19.70
2022-11-15T17:54:19.383Z,27.38
2022-11-15T17:56:48.281Z,19.13
2022-11-15T17:59:21.161Z,15.50
2022-11-15T18:01:51.397Z,17.10
2022-11-15T18:04:20.653Z,18.70
2022-11-15T18:06:51.049Z,21.58
2022-11-15T18:09:21.864Z,18.58
2022-11-15T18:11:51.833Z,16.65
2022-11-15T18:14:21.216Z,16.60
2022-11-15T18:16:50.083Z,17.45
2022-11-15T18:19:18.991Z,15.98
2022-11-15T18:22:02.018Z,22.45
2022-11-15T18:24:33.854Z,18.27
2022-11-15T18:27:04.354Z,16.85
2022-11-15T18:29:34.593Z,15.95
2022-11-15T18:32:06.427Z,19.10
2022-11-15T18:34:35.316Z,23.88
2022-11-15T18:37:04.446Z,20.85
2022-11-15T18:39:34.787Z,16.63
2022-11-15T18:42:03.937Z,21.65
2022-11-15T18:44:33.031Z,22.20
2022-11-15T18:47:02.035Z,19.83
2022-11-15T18:49:31.086Z,25.45
2022-11-15T18:52:00.013Z,22.95
2022-11-15T18:54:31.473Z,20.00
2022-11-15T18:57:02.335Z,17.65
2022-11-15T18:59:31.637Z,18.30
2022-11-15T19:02:00.515Z,18.70
2022-11-15T19:04:29.773Z,18.65
2022-11-15T19:06:58.719Z,15.15
2022-11-15T19:09:32.768Z,13.40
2022-11-15T19:12:03.348Z,14.48
2022-11-15T19:14:32.407Z,14.20
2022-11-15T19:17:02.020Z,18.20
2022-11-15T19:19:31.393Z,18.23
2022-11-15T19:22:00.366Z,20.08
2022-11-15T19:24:30.194Z,20.60
2022-11-15T19:26:59.038Z,22.02
2022-11-15T19:29:29.395Z,16.33
2022-11-15T19:31:58.253Z,16.60
2022-11-15T19:34:27.068Z,14.25
2022-11-15T19:36:55.909Z,21.10
2022-11-15T19:39:24.785Z,22.35
2022-11-15T19:41:53.670Z,25.48
2022-11-15T19:44:22.839Z,21.42
2022-11-15T19:46:53.027Z,18.35
2022-11-15T19:49:22.321Z,25.33
2022-11-15T19:51:51.215Z,19.38
2022-11-15T19:54:20.051Z,17.70
2022-11-15T19:56:48.910Z,21.27
2022-11-15T19:59:17.738Z,19.42
2022-11-15T20:01:46.768Z,18.88
2022-11-15T20:04:17.109Z,17.05
2022-11-15T20:06:46.422Z,19.27
2022-11-15T20:09:17.735Z,17.88
2022-11-15T20:11:46.656Z,16.65
2022-11-15T20:14:15.586Z,15.00
2022-11-15T20:16:44.434Z,16.08
2022-11-15T20:19:15.975Z,17.50
2022-11-15T20:21:46.275Z,18.63
2022-11-15T20:24:15.321Z,19.02
2022-11-15T20:26:44.205Z,22.70
2022-11-15T20:29:13.651Z,21.27
2022-11-15T20:31:42.568Z,23.60
2022-11-15T20:34:11.619Z,25.00
2022-11-15T20:36:40.513Z,26.65
2022-11-15T20:39:10.760Z,27.20
2022-11-15T20:41:39.636Z,36.92
2022-11-15T20:44:08.521Z,56.78
2022-11-15T20:46:37.442Z,30.83
2022-11-15T20:49:06.529Z,28.60
2022-11-15T20:51:35.485Z,21.77
2022-11-15T20:54:04.915Z,18.08
2022-11-15T20:56:35.168Z,22.67
2022-11-15T20:59:04.194Z,15.76
2022-11-15T21:01:33.186Z,20.75
2022-11-15T21:04:02.165Z,22.00
2022-11-15T21:06:31.606Z,22.33
2022-11-15T21:09:17.649Z,24.85
2022-11-15T21:12:05.386Z,24.48
2022-11-15T21:14:34.305Z,23.20
2022-11-15T21:17:03.925Z,25.70
2022-11-15T21:19:36.853Z,23.58
2022-11-15T21:22:07.357Z,24.77
2022-11-15T21:24:36.270Z,19.80
2022-11-15T21:27:06.643Z,17.65
2022-11-15T21:29:38.857Z,21.65
2022-11-15T21:32:09.800Z,24.65
2022-11-15T21:34:39.043Z,21.50
2022-11-15T21:37:10.609Z,22.10
2022-11-15T21:39:39.442Z,28.95
2022-11-15T21:42:09.791Z,22.23
2022-11-15T21:44:38.671Z,20.98
2022-11-15T21:47:07.528Z,23.63
2022-11-15T21:49:36.388Z,19.35
2022-11-15T21:52:05.440Z,25.08
2022-11-15T21:54:34.286Z,21.45
2022-11-15T21:57:04.215Z,24.35
2022-11-15T21:59:34.467Z,24.67
2022-11-15T22:02:17.148Z,21.75
2022-11-15T22:04:46.030Z,21.35
2022-11-15T22:07:14.988Z,25.65
2022-11-15T22:09:44.035Z,21.70
2022-11-15T22:12:12.963Z,22.25
2022-11-15T22:14:43.218Z,19.05
2022-11-15T22:17:12.537Z,18.58
2022-11-15T22:19:52.339Z,18.42
2022-11-15T22:22:21.895Z,19.45
2022-11-15T22:24:50.872Z,18.58
2022-11-15T22:27:19.865Z,20.15
2022-11-15T22:29:50.179Z,19.70
2022-11-15T22:32:19.140Z,19.63
2022-11-15T22:34:48.142Z,19.08
2022-11-15T22:37:21.146Z,18.75
2022-11-15T22:39:50.775Z,18.40
2022-11-15T22:42:23.609Z,19.25
2022-11-15T22:44:54.615Z,17.13
2022-11-15T22:47:23.675Z,21.20
2022-11-15T22:49:52.721Z,21.42
2022-11-15T22:52:21.655Z,22.50
2022-11-15T22:54:50.646Z,22.30
2022-11-15T22:57:19.550Z,22.80
2022-11-15T22:59:48.472Z,24.73
2022-11-15T23:02:18.881Z,26.63
2022-11-15T23:04:47.904Z,21.25
2022-11-15T23:07:16.940Z,24.88
2022-11-15T23:09:51.767Z,24.42
2022-11-15T23:17:37.501Z,21.88
2022-11-15T23:20:29.466Z,23.52
2022-11-15T23:22:55.464Z,22.60
2022-11-15T23:25:24.360Z,17.63
2022-11-15T23:27:53.263Z,18.70
2022-11-15T23:30:40.042Z,20.67
2022-11-15T23:33:32.434Z,18.17
2022-11-15T23:36:01.984Z,21.30
2022-11-15T23:38:31.174Z,20.95
2022-11-15T23:41:00.330Z,23.90
2022-11-15T23:43:29.809Z,19.50
2022-11-15T23:46:00.825Z,20.08
2022-11-15T23:48:31.525Z,23.45
2022-11-15T23:51:00.724Z,21.08
2022-11-15T23:53:29.818Z,24.00
2022-11-15T23:56:03.249Z,23.27
2022-11-15T23:58:32.551Z,21.80
